Time;durP1;ratioP1;P1;durP2;ratioP2;P2;SDS_P1;SDS_P2;PMS_P1;PMS_P2;Temp;Humidity;BMP_temperature;BMP_pressure;BME280_temperature;BME280_humidity;BME280_pressure;Samples;Min_cycle;Max_cycle;Signal;HPM_P1;HPM_P2
2023/04/10 00:00:23;;;;;;;7.65;6.85;;;;;;;7.79;99.57;101980.44;4969236;28;20508;-70
2023/04/10 00:02:48;;;;;;;7.82;6.97;;;;;;;7.78;99.71;101974.41;4969597;28;20038;-71
2023/04/10 00:05:14;;;;;;;10.80;7.60;;;;;;;7.76;100.00;101970.84;4969644;28;20073;-70
2023/04/10 00:07:39;;;;;;;8.45;6.47;;;;;;;7.76;99.75;101959.63;4969163;28;20524;-70
2023/04/10 00:10:05;;;;;;;8.00;7.20;;;;;;;7.74;99.77;101949.19;4969693;28;20030;-70
2023/04/10 00:12:30;;;;;;;6.97;6.28;;;;;;;7.75;100.00;101942.38;4969541;28;20085;-71
2023/04/10 00:14:55;;;;;;;8.68;7.40;;;;;;;7.77;98.99;101936.47;4969109;28;20683;-70
2023/04/10 00:17:21;;;;;;;8.65;7.75;;;;;;;7.79;98.62;101936.56;4968718;28;20434;-71
2023/04/10 00:19:46;;;;;;;7.28;6.50;;;;;;;7.81;98.79;101922.06;4969359;28;20027;-70
2023/04/10 00:22:11;;;;;;;8.60;7.25;;;;;;;7.83;98.00;101922.16;4969009;28;20029;-70
2023/04/10 00:24:37;;;;;;;8.05;7.05;;;;;;;7.85;98.27;101928.31;4968909;28;20035;-70
2023/04/10 00:27:02;;;;;;;7.82;7.03;;;;;;;7.85;97.67;101924.06;4968372;28;20026;-71
2023/04/10 00:29:27;;;;;;;9.10;7.28;;;;;;;7.88;97.77;101919.06;4969174;28;20029;-70
2023/04/10 00:31:53;;;;;;;9.32;6.78;;;;;;;7.87;96.87;101917.31;4968579;28;20078;-71
2023/04/10 00:34:18;;;;;;;7.57;6.88;;;;;;;7.87;96.72;101912.13;4969428;28;20513;-70
2023/04/10 00:36:46;;;;;;;7.82;6.85;;;;;;;7.89;96.88;101914.81;4969401;28;20030;-71
2023/04/10 00:39:11;;;;;;;6.88;6.18;;;;;;;7.88;96.28;101911.31;4968796;28;20117;-70
2023/04/10 00:41:37;;;;;;;8.60;7.70;;;;;;;7.89;96.91;101907.06;4968811;28;20027;-70
2023/04/10 00:44:02;;;;;;;7.57;6.40;;;;;;;7.88;96.28;101901.00;4968595;28;20026;-71
2023/04/10 00:46:29;;;;;;;8.52;7.10;;;;;;;7.88;96.38;101901.00;4968661;28;20360;-71
2023/04/10 00:48:55;;;;;;;7.28;6.57;;;;;;;7.86;96.52;101900.00;4968734;28;20165;-70
2023/04/10 00:51:21;;;;;;;7.57;6.68;;;;;;;7.87;95.96;101896.66;4968810;28;20482;-69
2023/04/10 00:53:49;;;;;;;9.52;7.05;;;;;;;7.90;95.01;101898.50;4968904;28;20456;-70
2023/04/10 00:56:15;;;;;;;7.07;6.38;;;;;;;7.88;96.10;101888.09;4968502;28;20424;-70
2023/04/10 00:58:41;;;;;;;7.22;6.53;;;;;;;7.87;95.62;101895.75;4968198;28;20108;-70
2023/04/10 01:01:07;;;;;;;7.68;6.40;;;;;;;7.84;96.10;101895.59;4968710;28;20044;-70
2023/04/10 01:03:33;;;;;;;7.05;6.35;;;;;;;7.83;95.14;101896.34;4968692;28;20041;-71
2023/04/10 01:06:17;;;;;;;9.13;7.18;;;;;;;7.81;95.85;101896.28;4968659;28;20023;-71
2023/04/10 01:09:01;;;;;;;7.28;6.55;;;;;;;7.79;95.79;101890.13;4968677;28;20648;-70
2023/04/10 01:11:32;;;;;;;7.93;7.22;;;;;;;7.77;95.42;101891.75;4968282;28;20077;-71
2023/04/10 01:14:11;;;;;;;7.55;6.53;;;;;;;7.75;96.36;101890.75;4968724;28;20051;-70
2023/04/10 01:16:52;;;;;;;7.28;6.35;;;;;;;7.73;96.39;101889.78;4968630;28;20118;-70
2023/04/10 01:19:17;;;;;;;7.55;6.60;;;;;;;7.73;96.07;101876.88;4968559;28;20031;-70
2023/04/10 01:21:43;;;;;;;7.57;5.95;;;;;;;7.68;96.80;101876.59;4968703;28;20113;-70
2023/04/10 01:24:35;;;;;;;6.93;6.13;;;;;;;7.66;96.24;101878.19;4968671;28;20081;-70
2023/04/10 01:27:25;;;;;;;7.35;6.13;;;;;;;7.66;96.93;101878.19;4968566;28;20057;-70
2023/04/10 01:29:56;;;;;;;7.72;6.93;;;;;;;7.65;96.06;101882.44;4968482;28;20027;-70
2023/04/10 01:32:21;;;;;;;;;;;;;;;7.64;96.19;101878.09;4968938;28;20118;-70
2023/04/10 01:34:50;;;;;;;7.22;6.35;;;;;;;7.64;97.60;101880.69;4968313;28;20318;-70
2023/04/10 01:37:20;;;;;;;6.88;6.18;;;;;;;7.64;96.89;101872.03;4968773;28;20078;-70
2023/04/10 01:39:49;;;;;;;8.40;6.63;;;;;;;7.62;97.03;101879.69;4971742;28;20150;-70
2023/04/10 01:42:18;;;;;;;6.65;5.70;;;;;;;7.60;97.79;101876.13;4971959;28;20427;-71
2023/04/10 01:44:46;;;;;;;6.80;6.10;;;;;;;7.57;97.82;101870.78;4971755;28;20031;-71
2023/04/10 01:47:13;;;;;;;7.07;6.35;;;;;;;7.57;98.50;101870.78;4971726;28;20050;-70
2023/04/10 01:49:43;;;;;;;8.35;6.50;;;;;;;7.54;98.42;101862.84;4972124;28;20152;-70
2023/04/10 01:52:09;;;;;;;7.72;6.35;;;;;;;7.53;98.95;101861.06;4971274;28;20110;-70
2023/04/10 01:54:35;;;;;;;7.88;7.07;;;;;;;7.51;98.39;101865.22;4971608;28;20088;-70
2023/04/10 01:57:02;;;;;;;7.22;6.40;;;;;;;7.49;98.35;101857.41;4971816;28;20023;-70
2023/04/10 01:59:28;;;;;;;6.68;6.00;;;;;;;7.44;98.82;101857.13;4971399;28;20069;-70
2023/04/10 02:01:57;;;;;;;8.00;6.82;;;;;;;7.41;99.73;101845.75;4971475;28;20325;-70
2023/04/10 02:04:25;;;;;;;8.02;6.30;;;;;;;7.36;98.94;101845.44;4971828;28;20045;-70
2023/04/10 02:07:01;;;;;;;7.20;6.50;;;;;;;7.34;99.11;101836.72;4972073;28;20027;-70
2023/04/10 02:09:53;;;;;;;7.07;6.38;;;;;;;7.30;99.76;101829.63;4971406;28;20531;-70
2023/04/10 02:12:25;;;;;;;8.05;7.25;;;;;;;7.27;99.98;101827.72;4971736;28;20637;-70
2023/04/10 02:14:52;;;;;;;8.65;7.00;;;;;;;7.24;100.00;101824.97;4970915;28;20141;-70
2023/04/10 02:17:25;;;;;;;7.85;6.88;;;;;;;7.21;100.00;101819.63;4971770;28;20027;-70
2023/04/10 02:19:55;;;;;;;7.85;7.07;;;;;;;7.20;100.00;101822.97;4971577;28;20033;-70
2023/04/10 02:22:23;;;;;;;7.97;7.18;;;;;;;7.17;100.00;101823.69;4970807;28;20129;-70
2023/04/10 02:24:48;;;;;;;9.55;7.30;;;;;;;7.16;100.00;101821.03;4971501;28;20234;-70
2023/04/10 02:27:15;;;;;;;8.20;7.43;;;;;;;7.14;100.00;101815.75;4971108;28;20031;-70
2023/04/10 02:29:40;;;;;;;10.27;7.03;;;;;;;7.12;100.00;101814.78;4970534;28;20034;-69
2023/04/10 02:32:05;;;;;;;8.63;7.65;;;;;;;7.10;100.00;101818.97;4971301;28;20014;-70
2023/04/10 02:34:31;;;;;;;8.05;7.25;;;;;;;7.08;100.00;101817.97;4971030;28;20077;-70
2023/04/10 02:36:56;;;;;;;7.93;7.13;;;;;;;7.06;100.00;101819.56;4970906;28;20011;-70
2023/04/10 02:39:21;;;;;;;8.57;6.85;;;;;;;7.05;100.00;101804.91;4971030;28;20027;-70
2023/04/10 02:41:47;;;;;;;8.15;7.20;;;;;;;7.04;100.00;101803.09;4970155;28;20259;-70
2023/04/10 02:44:12;;;;;;;8.60;7.68;;;;;;;7.02;100.00;101815.00;4971120;28;20035;-71
2023/04/10 02:46:38;;;;;;;7.97;6.90;;;;;;;6.99;100.00;101815.72;4971290;28;20142;-70
2023/04/10 02:49:03;;;;;;;8.07;7.25;;;;;;;6.95;100.00;101812.06;4970210;28;20237;-70
2023/04/10 02:51:28;;;;;;;8.77;7.47;;;;;;;6.93;100.00;101808.47;4970492;28;20027;-70
2023/04/10 02:53:54;;;;;;;7.93;7.03;;;;;;;6.91;100.00;101809.16;4970365;28;20023;-70
2023/04/10 02:56:19;;;;;;;8.15;7.15;;;;;;;6.90;100.00;101813.44;4970490;28;20716;-70
2023/04/10 02:58:46;;;;;;;7.95;7.15;;;;;;;6.88;100.00;101808.97;4970276;28;20022;-71
2023/04/10 03:01:12;;;;;;;8.93;6.93;;;;;;;6.86;100.00;101801.16;4970617;28;20106;-71
2023/04/10 03:03:37;;;;;;;8.35;7.45;;;;;;;6.85;100.00;101804.53;4970661;28;20102;-70
2023/04/10 03:06:02;;;;;;;9.00;7.80;;;;;;;6.83;100.00;101806.13;4970259;28;20038;-70
2023/04/10 03:08:29;;;;;;;7.63;6.82;;;;;;;6.81;100.00;101803.47;4969910;28;20022;-70
2023/04/10 03:10:54;;;;;;;8.57;7.68;;;;;;;6.78;100.00;101808.41;4970404;28;20039;-70
2023/04/10 03:13:20;;;;;;;9.43;8.05;;;;;;;6.76;100.00;101809.09;4970106;28;20030;-70
2023/04/10 03:15:45;;;;;;;8.15;7.30;;;;;;;6.74;100.00;101811.59;4970169;28;20420;-71
2023/04/10 03:18:11;;;;;;;8.18;7.40;;;;;;;6.73;100.00;101814.94;4970120;28;20497;-70
2023/04/10 03:20:37;;;;;;;8.27;7.47;;;;;;;6.72;100.00;101814.06;4969950;28;20031;-70
2023/04/10 03:23:06;;;;;;;7.82;6.93;;;;;;;6.71;100.00;101816.56;4970119;28;20026;-70
2023/04/10 03:25:34;;;;;;;8.10;7.28;;;;;;;6.68;100.00;101816.34;4970366;28;20530;-70
2023/04/10 03:27:59;;;;;;;8.75;7.43;;;;;;;6.66;100.00;101818.81;4969934;28;20023;-70
2023/04/10 03:30:25;;;;;;;8.63;7.28;;;;;;;6.66;100.00;101815.34;4970216;28;20029;-70
2023/04/10 03:32:50;;;;;;;8.75;7.32;;;;;;;6.63;100.00;101812.59;4970471;28;20050;-71
2023/04/10 03:35:15;;;;;;;9.88;7.93;;;;;;;6.61;100.00;101809.91;4969611;28;20027;-71
2023/04/10 03:37:41;;;;;;;8.55;6.78;;;;;;;6.58;100.00;101805.44;4969578;28;20277;-70
2023/04/10 03:40:07;;;;;;;8.27;7.47;;;;;;;6.59;100.00;101802.09;4970040;28;20471;-70
2023/04/10 03:42:33;;;;;;;8.25;7.45;;;;;;;6.57;100.00;101798.53;4969421;28;20081;-70
2023/04/10 03:45:00;;;;;;;9.60;8.30;;;;;;;6.54;100.00;101793.19;4969883;28;20222;-70
2023/04/10 03:47:25;;;;;;;8.30;7.47;;;;;;;6.52;100.00;101793.88;4970019;28;20027;-70
2023/04/10 03:49:50;;;;;;;10.82;8.80;;;;;;;6.49;100.00;101800.59;4969622;28;20019;-70
2023/04/10 03:52:16;;;;;;;8.98;8.02;;;;;;;6.48;100.00;101797.94;4969313;28;20065;-70
2023/04/10 03:54:41;;;;;;;9.55;7.97;;;;;;;6.45;100.00;101784.88;4969652;28;20029;-70
2023/04/10 03:57:06;;;;;;;9.13;7.95;;;;;;;6.42;100.00;101777.81;4969692;28;20018;-70
2023/04/10 03:59:32;;;;;;;8.38;7.57;;;;;;;6.40;100.00;101782.00;4969629;28;20133;-71
2023/04/10 04:01:57;;;;;;;10.43;7.57;;;;;;;6.39;100.00;101782.78;4969179;28;20391;-71
2023/04/10 04:04:22;;;;;;;9.60;8.60;;;;;;;6.36;100.00;101785.16;4969914;28;20026;-70
2023/04/10 04:06:47;;;;;;;9.50;8.60;;;;;;;6.33;100.00;101783.28;4969954;28;20026;-70
2023/04/10 04:09:13;;;;;;;8.85;7.45;;;;;;;6.31;100.00;101782.31;4969389;28;20664;-71
2023/04/10 04:11:38;;;;;;;10.70;8.48;;;;;;;6.27;100.00;101785.47;4969475;28;20293;-70
2023/04/10 04:14:03;;;;;;;9.13;8.18;;;;;;;6.23;100.00;101776.66;4968695;28;20054;-70
2023/04/10 04:16:29;;;;;;;9.52;8.52;;;;;;;6.21;100.00;101778.22;4969582;28;20471;-70
2023/04/10 04:18:54;;;;;;;9.88;8.45;;;;;;;6.19;100.00;101768.63;4969492;28;20110;-70
2023/04/10 04:21:19;;;;;;;10.25;9.05;;;;;;;6.16;100.00;101764.16;4967676;28;20027;-70
2023/04/10 04:23:45;;;;;;;9.40;8.30;;;;;;;6.13;100.00;101769.13;4968977;28;20030;-70
2023/04/10 04:26:10;;;;;;;9.02;8.13;;;;;;;6.12;100.00;101772.47;4969282;28;20023;-71
2023/04/10 04:28:35;;;;;;;10.48;9.10;;;;;;;6.10;100.00;101761.19;4968616;28;20037;-71
2023/04/10 04:31:01;;;;;;;10.15;8.93;;;;;;;6.07;100.00;101758.41;4968929;28;20026;-70
2023/04/10 04:33:27;;;;;;;9.73;8.70;;;;;;;6.05;100.00;101750.59;4969156;28;20015;-70
2023/04/10 04:35:52;;;;;;;9.57;8.60;;;;;;;6.04;100.00;101758.19;4969383;28;20019;-71
2023/04/10 04:38:18;;;;;;;10.05;8.52;;;;;;;6.01;100.00;101754.63;4968694;28;20277;-71
2023/04/10 04:40:44;;;;;;;9.15;8.18;;;;;;;6.03;100.00;101756.44;4968752;28;20570;-70
2023/04/10 04:43:09;;;;;;;9.48;8.48;;;;;;;6.00;100.00;101760.56;4968939;28;20038;-70
2023/04/10 04:45:35;;;;;;;10.40;8.77;;;;;;;5.99;100.00;101752.75;4967258;28;20078;-71
2023/04/10 04:48:00;;;;;;;10.07;8.77;;;;;;;5.96;100.00;101756.00;4966920;28;20031;-70
2023/04/10 04:50:25;;;;;;;9.77;8.35;;;;;;;5.96;100.00;101750.84;4967886;28;20030;-70
2023/04/10 04:52:51;;;;;;;9.68;8.60;;;;;;;5.95;100.00;101754.25;4968541;28;20106;-70
2023/04/10 04:55:16;;;;;;;10.00;8.27;;;;;;;5.93;100.00;101740.38;4967335;28;20526;-70
2023/04/10 04:57:41;;;;;;;8.77;7.90;;;;;;;5.93;100.00;101752.34;4966461;28;20118;-70
2023/04/10 05:00:07;;;;;;;9.13;8.30;;;;;;;5.91;100.00;101738.47;4967243;28;20102;-71
2023/04/10 05:02:32;;;;;;;9.85;8.07;;;;;;;5.91;100.00;101749.66;4968728;28;20026;-70
2023/04/10 05:04:58;;;;;;;8.13;7.32;;;;;;;5.91;100.00;101741.94;4968719;28;20027;-70
2023/04/10 05:07:23;;;;;;;8.68;7.82;;;;;;;5.91;100.00;101741.94;4968800;28;20035;-70
2023/04/10 05:09:48;;;;;;;8.15;7.38;;;;;;;5.92;100.00;101736.00;4968997;28;20534;-70
2023/04/10 05:12:14;;;;;;;8.52;7.72;;;;;;;5.91;100.00;101730.75;4968562;28;20498;-70
2023/04/10 05:14:39;;;;;;;8.52;7.63;;;;;;;5.93;100.00;101730.09;4972260;28;20133;-70
2023/04/10 05:17:04;;;;;;;8.48;7.60;;;;;;;5.94;100.00;101724.13;4972061;28;20181;-70
2023/04/10 05:19:30;;;;;;;8.90;7.75;;;;;;;5.96;100.00;101722.56;4973046;28;20035;-70
2023/04/10 05:21:55;;;;;;;8.25;7.45;;;;;;;5.97;100.00;101724.31;4971871;28;20045;-70
2023/04/10 05:24:20;;;;;;;9.27;7.93;;;;;;;5.98;100.00;101715.84;4972729;28;20035;-70
2023/04/10 05:26:46;;;;;;;8.73;7.38;;;;;;;6.06;100.00;101713.78;4972543;28;20034;-70
2023/04/10 05:29:11;;;;;;;7.38;6.50;;;;;;;6.08;100.00;101729.34;4972306;28;20023;-70
2023/04/10 05:31:36;;;;;;;8.32;7.50;;;;;;;6.10;100.00;101717.44;4971856;28;20101;-70
2023/04/10 05:34:02;;;;;;;8.43;7.55;;;;;;;6.12;100.00;101726.16;4971995;28;20037;-70
2023/04/10 05:36:27;;;;;;;8.45;7.50;;;;;;;6.14;100.00;101724.56;4972059;28;20026;-70
2023/04/10 05:38:52;;;;;;;7.90;7.20;;;;;;;6.18;100.00;101721.41;4971965;28;20109;-70
2023/04/10 05:41:17;;;;;;;8.18;7.38;;;;;;;6.22;100.00;101718.22;4972200;28;20034;-70
2023/04/10 05:43:43;;;;;;;7.70;6.90;;;;;;;6.26;100.00;101719.31;4971841;28;20027;-70
2023/04/10 05:46:08;;;;;;;8.18;7.28;;;;;;;6.28;100.00;101722.00;4971585;28;20038;-70
2023/04/10 05:48:33;;;;;;;8.98;7.53;;;;;;;6.32;100.00;101718.81;4971970;28;20247;-70
2023/04/10 05:50:58;;;;;;;7.72;6.95;;;;;;;6.37;100.00;101725.13;4971943;28;20109;-70
2023/04/10 05:53:31;;;;;;;8.50;7.45;;;;;;;6.41;100.00;101721.97;4972291;28;20019;-70
2023/04/10 05:55:58;;;;;;;8.88;7.97;;;;;;;6.41;100.00;101724.56;4971294;28;20042;-70
2023/04/10 05:58:24;;;;;;;7.50;6.80;;;;;;;6.47;100.00;101719.81;4971640;28;20026;-70
2023/04/10 06:00:50;;;;;;;8.15;7.35;;;;;;;6.51;100.00;101718.31;4972149;28;20472;-70
2023/04/10 06:03:15;;;;;;;8.18;7.38;;;;;;;6.57;100.00;101717.78;4971861;28;20093;-70
2023/04/10 06:05:41;;;;;;;8.00;7.00;;;;;;;6.62;100.00;101716.38;4971335;28;20382;-70
2023/04/10 06:08:06;;;;;;;7.55;6.85;;;;;;;6.68;100.00;101728.75;4971932;28;20042;-70
2023/04/10 06:10:31;;;;;;;7.60;6.80;;;;;;;6.70;100.00;101722.91;4971435;28;20501;-70
2023/04/10 06:12:56;;;;;;;7.45;6.75;;;;;;;6.77;100.00;101728.44;4971380;28;20027;-70
2023/04/10 06:15:22;;;;;;;7.70;6.65;;;;;;;6.81;100.00;101721.00;4970884;28;20081;-70
2023/04/10 06:17:47;;;;;;;7.93;7.13;;;;;;;6.88;100.00;101711.97;4971555;28;20112;-70
2023/04/10 06:20:13;;;;;;;7.82;7.03;;;;;;;6.95;100.00;101721.84;4971206;28;20399;-70
2023/04/10 06:22:38;;;;;;;8.00;7.20;;;;;;;7.01;100.00;101715.28;4971234;28;20034;-70
2023/04/10 06:25:04;;;;;;;8.63;7.38;;;;;;;7.08;100.00;101714.88;4970249;28;20494;-70
2023/04/10 06:27:30;;;;;;;8.48;7.68;;;;;;;7.14;100.00;101715.22;4970774;28;20050;-70
2023/04/10 06:29:55;;;;;;;8.60;7.68;;;;;;;7.21;99.20;101708.75;4971147;28;20035;-70
2023/04/10 06:32:20;;;;;;;9.95;7.60;;;;;;;7.29;99.86;101710.09;4971019;28;20031;-70
2023/04/10 06:34:46;;;;;;;8.50;7.65;;;;;;;7.35;97.90;101699.25;4971278;28;20027;-70
2023/04/10 06:37:11;;;;;;;7.75;6.95;;;;;;;7.39;97.39;101696.09;4970767;28;20394;-70
2023/04/10 06:39:38;;;;;;;7.97;7.20;;;;;;;7.44;97.14;101698.91;4970636;28;20031;-70
2023/04/10 06:42:03;;;;;;;7.82;7.05;;;;;;;7.49;96.01;101697.50;4970909;28;20027;-71
2023/04/10 06:44:28;;;;;;;8.65;7.78;;;;;;;7.46;93.98;101694.75;4970807;28;20424;-70
2023/04/10 06:46:54;;;;;;;9.43;8.02;;;;;;;7.48;95.11;101685.41;4970755;28;20150;-70
2023/04/10 06:49:19;;;;;;;9.35;8.00;;;;;;;7.50;94.95;101677.75;4970648;28;20085;-70
2023/04/10 06:51:47;;;;;;;8.15;7.18;;;;;;;7.54;95.56;101669.38;4971145;28;20038;-70
2023/04/10 06:54:13;;;;;;;8.43;7.55;;;;;;;7.59;93.53;101667.09;4970963;28;20030;-70
2023/04/10 06:56:38;;;;;;;8.02;7.32;;;;;;;7.63;93.98;101664.75;4970715;28;20030;-70
2023/04/10 06:59:03;;;;;;;8.43;7.60;;;;;;;7.69;93.58;101659.97;4970766;28;20547;-70
2023/04/10 07:01:29;;;;;;;8.30;7.32;;;;;;;7.74;92.83;101656.72;4970773;28;20034;-70
2023/04/10 07:03:55;;;;;;;7.95;6.93;;;;;;;7.81;93.29;101645.94;4970246;28;20035;-70
2023/04/10 07:06:20;;;;;;;9.65;7.90;;;;;;;7.88;93.66;101645.50;4970840;28;20027;-70
2023/04/10 07:08:47;;;;;;;8.23;7.43;;;;;;;7.92;93.35;101642.28;4970241;28;20061;-70
2023/04/10 07:11:12;;;;;;;9.02;7.88;;;;;;;7.98;91.86;101640.84;4970093;28;20126;-69
2023/04/10 07:13:38;;;;;;;8.00;7.20;;;;;;;8.03;91.43;101639.41;4969246;28;20105;-70
2023/04/10 07:16:05;;;;;;;8.10;7.30;;;;;;;8.09;91.74;101629.44;4970477;28;20027;-70
2023/04/10 07:18:30;;;;;;;7.35;6.68;;;;;;;8.16;91.87;101633.25;4970307;28;20086;-70
2023/04/10 07:20:56;;;;;;;7.50;6.80;;;;;;;8.21;90.70;101633.47;4970312;28;20030;-70
2023/04/10 07:23:21;;;;;;;7.35;6.65;;;;;;;8.28;91.09;101626.16;4970405;28;20471;-70
2023/04/10 07:25:47;;;;;;;7.75;6.80;;;;;;;8.34;89.14;101619.53;4969474;28;20562;-70
2023/04/10 07:28:12;;;;;;;8.98;7.65;;;;;;;8.41;88.12;101612.22;4970043;28;20032;-70
2023/04/10 07:30:37;;;;;;;7.43;6.78;;;;;;;8.49;88.78;101611.75;4969827;28;20033;-70
2023/04/10 07:33:02;;;;;;;7.82;7.03;;;;;;;8.53;87.16;101606.81;4969683;28;20026;-70
2023/04/10 07:35:28;;;;;;;7.82;7.13;;;;;;;8.61;87.15;101604.66;4969700;28;20046;-70
2023/04/10 07:37:56;;;;;;;7.55;6.85;;;;;;;8.70;86.33;101604.25;4968880;28;20058;-70
2023/04/10 07:40:21;;;;;;;7.15;6.22;;;;;;;8.85;84.64;101608.44;4970466;28;20109;-70
2023/04/10 07:42:46;;;;;;;7.32;6.47;;;;;;;8.96;85.15;101596.06;4968307;28;20062;-70
2023/04/10 07:45:12;;;;;;;7.35;6.65;;;;;;;9.10;84.60;101595.06;4969978;28;20026;-70
2023/04/10 07:47:37;;;;;;;6.93;6.28;;;;;;;9.32;82.96;101588.34;4969548;28;20110;-70
2023/04/10 07:50:03;;;;;;;6.93;6.30;;;;;;;9.56;82.66;101581.72;4968869;28;20387;-70
2023/04/10 07:52:28;;;;;;;6.60;6.00;;;;;;;9.80;80.83;101584.63;4969473;28;20097;-71
2023/04/10 07:54:54;;;;;;;7.15;6.45;;;;;;;10.07;79.44;101568.56;4969993;28;20031;-70
2023/04/10 07:57:19;;;;;;;6.22;5.63;;;;;;;10.36;78.26;101572.41;4970438;28;20034;-71
2023/04/10 07:59:45;;;;;;;6.97;6.38;;;;;;;10.68;77.56;101567.78;4968979;28;20494;-70
2023/04/10 08:02:10;;;;;;;6.47;5.88;;;;;;;11.03;74.61;101559.72;4970225;28;20034;-70
2023/04/10 08:04:35;;;;;;;6.72;6.13;;;;;;;11.42;73.57;101553.53;4970170;28;20368;-71
2023/04/10 08:07:01;;;;;;;5.93;5.32;;;;;;;11.81;72.93;101556.72;4969359;28;20069;-71
2023/04/10 08:09:26;;;;;;;6.38;5.78;;;;;;;12.00;66.75;101545.31;4969144;28;20027;-70
2023/04/10 08:11:51;;;;;;;6.30;5.70;;;;;;;11.99;65.64;101549.63;4969353;28;20479;-70
2023/04/10 08:14:17;;;;;;;5.88;5.38;;;;;;;12.06;66.26;101544.66;4969072;28;20042;-70
2023/04/10 08:16:42;;;;;;;5.80;5.22;;;;;;;11.92;66.45;101544.16;4968987;28;20030;-70
2023/04/10 08:19:08;;;;;;;6.03;5.40;;;;;;;11.92;65.89;101545.03;4969215;28;20023;-70
2023/04/10 08:21:33;;;;;;;5.70;5.20;;;;;;;11.84;66.76;101536.06;4969942;28;20090;-70
2023/04/10 08:24:00;;;;;;;6.10;5.50;;;;;;;11.70;66.97;101543.31;4969176;28;20102;-70
2023/04/10 08:26:27;;;;;;;6.22;5.60;;;;;;;11.64;68.32;101538.78;4969298;28;20034;-70
2023/04/10 08:28:54;;;;;;;6.15;5.45;;;;;;;11.64;68.66;101541.38;4969065;28;20086;-70
2023/04/10 08:31:21;;;;;;;6.15;5.50;;;;;;;11.62;70.47;101536.13;4969056;28;20529;-70
2023/04/10 08:33:47;;;;;;;6.53;5.90;;;;;;;11.58;68.40;101543.75;4968733;28;20109;-70
2023/04/10 08:36:16;;;;;;;6.38;5.78;;;;;;;11.47;69.13;101536.44;4969150;28;20105;-70
2023/04/10 08:38:43;;;;;;;6.68;6.07;;;;;;;11.43;69.36;101544.00;4968213;28;20050;-70
2023/04/10 08:41:14;;;;;;;5.97;5.47;;;;;;;11.57;70.12;101531.56;4968705;28;20396;-70
2023/04/10 08:43:39;;;;;;;6.35;5.75;;;;;;;11.60;69.21;101534.31;4969338;28;20015;-70
2023/04/10 08:46:05;;;;;;;6.55;5.95;;;;;;;11.58;70.25;101522.97;4966973;28;20031;-70
2023/04/10 08:48:37;;;;;;;6.00;5.50;;;;;;;11.59;70.32;101524.72;4968408;28;20031;-71
2023/04/10 08:51:04;;;;;;;6.47;5.88;;;;;;;11.64;70.87;101515.41;4968616;28;20035;-70
2023/04/10 08:53:30;;;;;;;6.75;6.07;;;;;;;11.70;71.01;101513.06;4968563;28;20026;-70
2023/04/10 08:55:56;;;;;;;6.30;5.70;;;;;;;11.65;70.16;101522.38;4969239;28;20107;-71
2023/04/10 08:58:23;;;;;;;5.45;4.95;;;;;;;11.69;71.53;101516.50;4968596;28;20043;-70
2023/04/10 09:00:49;;;;;;;6.18;5.63;;;;;;;11.70;70.29;101517.38;4968647;28;20110;-70
2023/04/10 09:03:15;;;;;;;6.43;5.82;;;;;;;11.64;70.64;101518.91;4969335;28;20042;-70
2023/04/10 09:05:40;;;;;;;5.88;5.38;;;;;;;11.69;72.65;101516.50;4968935;28;20031;-70
2023/04/10 09:08:09;;;;;;;6.35;5.75;;;;;;;11.69;70.84;101516.50;4967455;28;20125;-70
2023/04/10 09:10:35;;;;;;;6.03;5.53;;;;;;;11.68;70.43;101514.72;4968668;28;20135;-70
2023/04/10 09:13:00;;;;;;;6.15;5.55;;;;;;;11.59;70.48;101515.25;4968151;28;20114;-70
2023/04/10 09:15:25;;;;;;;5.75;5.10;;;;;;;11.65;71.37;101515.50;4968713;28;20134;-70
2023/04/10 09:18:01;;;;;;;5.65;5.15;;;;;;;11.67;71.17;101509.47;4968563;28;20033;-70
2023/04/10 09:20:29;;;;;;;6.22;5.57;;;;;;;11.73;71.34;101507.97;4967566;28;20420;-71
2023/04/10 09:22:55;;;;;;;5.78;5.28;;;;;;;11.80;72.53;101498.69;4967954;28;20070;-71
2023/04/10 09:25:40;;;;;;;7.22;5.68;;;;;;;11.87;71.73;101494.66;4967874;28;20054;-70
2023/04/10 09:28:06;;;;;;;6.18;5.60;;;;;;;11.92;71.18;101498.28;4969091;28;20502;-71
2023/04/10 09:30:36;;;;;;;5.55;5.05;;;;;;;11.95;70.78;101497.50;4968713;28;20033;-71
2023/04/10 09:33:02;;;;;;;6.75;5.50;;;;;;;11.98;71.04;101493.31;4968947;28;20117;-71
2023/04/10 09:35:37;;;;;;;6.05;5.45;;;;;;;12.07;70.16;101476.31;4968522;28;20050;-70
2023/04/10 09:38:16;;;;;;;6.22;5.45;;;;;;;12.08;69.67;101480.66;4968011;28;20145;-71
2023/04/10 09:40:42;;;;;;;6.30;5.70;;;;;;;12.14;70.76;101473.13;4968643;28;20070;-71
2023/04/10 09:43:24;;;;;;;6.13;5.53;;;;;;;12.17;71.72;101470.63;4968356;28;20070;-70
2023/04/10 09:45:55;;;;;;;5.95;5.45;;;;;;;12.20;71.23;101454.25;4968827;28;20475;-71
2023/04/10 09:48:21;;;;;;;;;;;;;;;12.29;71.13;101461.50;4969028;28;20121;-70
2023/04/10 09:50:47;;;;;;;5.90;5.30;;;;;;;12.29;71.95;101430.31;4967758;28;20352;-70
2023/04/10 09:53:20;;;;;;;5.55;5.05;;;;;;;12.34;71.38;101429.63;4969082;28;20031;-70
2023/04/10 09:55:48;;;;;;;5.82;5.32;;;;;;;12.32;70.17;101425.25;4968286;28;20037;-70
2023/04/10 09:58:14;;;;;;;5.57;5.07;;;;;;;12.39;70.62;101434.13;4968750;28;20459;-71
2023/04/10 10:00:39;;;;;;;5.18;4.72;;;;;;;12.41;70.99;101438.53;4971522;28;20085;-70
2023/04/10 10:03:08;;;;;;;6.00;5.00;;;;;;;12.43;70.08;101434.25;4971558;28;20027;-71
2023/04/10 10:05:39;;;;;;;5.50;5.00;;;;;;;12.44;70.67;101429.97;4971965;28;20459;-71
2023/04/10 10:08:04;;;;;;;5.65;5.15;;;;;;;12.47;70.85;101428.34;4971974;28;20417;-71
2023/04/10 10:10:30;;;;;;;5.18;4.68;;;;;;;12.55;71.71;101430.31;4971767;28;20062;-70
2023/04/10 10:13:00;;;;;;;6.07;5.18;;;;;;;12.65;72.72;101419.38;4971630;28;20029;-70
2023/04/10 10:15:28;;;;;;;5.70;5.20;;;;;;;12.77;71.78;101426.69;4971769;28;20047;-71
2023/04/10 10:18:09;;;;;;;6.28;5.68;;;;;;;12.86;70.62;101426.13;4970722;28;20058;-71
2023/04/10 10:20:38;;;;;;;5.35;4.95;;;;;;;13.02;69.53;101409.28;4971200;28;20559;-71
2023/04/10 10:23:03;;;;;;;4.95;4.55;;;;;;;13.06;70.39;101385.13;4971434;28;20023;-72
2023/04/10 10:25:30;;;;;;;5.35;4.88;;;;;;;13.16;70.50;101393.19;4971370;28;20030;-71
2023/04/10 10:27:59;;;;;;;4.93;4.47;;;;;;;13.27;71.26;101399.63;4971752;28;20034;-71
2023/04/10 10:30:25;;;;;;;5.10;4.65;;;;;;;13.41;69.77;101388.72;4970626;28;20072;-71
2023/04/10 10:32:50;;;;;;;4.32;3.95;;;;;;;13.63;70.51;101379.84;4971287;28;20023;-71
2023/04/10 10:35:17;;;;;;;4.47;4.07;;;;;;;13.87;68.72;101386.56;4971262;28;20022;-71
2023/04/10 10:37:44;;;;;;;4.72;4.32;;;;;;;14.10;66.10;101378.50;4970609;28;20093;-71
2023/04/10 10:40:18;;;;;;;4.53;3.97;;;;;;;14.27;66.46;101372.81;4971292;28;20158;-71
2023/04/10 10:43:03;;;;;;;4.32;3.50;;;;;;;14.44;61.83;101369.75;4970874;28;20023;-71
2023/04/10 10:45:45;;;;;;;3.13;2.92;;;;;;;14.50;62.65;101356.84;4971109;28;20101;-72
2023/04/10 10:48:11;;;;;;;3.42;3.13;;;;;;;14.55;61.98;101357.84;4971051;28;20073;-72
2023/04/10 10:50:57;;;;;;;3.75;3.40;;;;;;;14.59;62.24;101351.84;4970919;28;20070;-72
2023/04/10 10:53:32;;;;;;;3.38;3.08;;;;;;;14.62;61.32;101357.16;4970597;28;20089;-71
2023/04/10 10:55:57;;;;;;;4.35;3.95;;;;;;;14.67;59.51;101339.00;4971277;28;20058;-71
2023/04/10 10:58:48;;;;;;;3.70;3.30;;;;;;;14.66;60.20;101342.44;4970921;28;20503;-71
2023/04/10 11:01:14;;;;;;;4.35;3.85;;;;;;;14.70;59.98;101335.56;4969947;28;20033;-72
2023/04/10 11:03:40;;;;;;;4.43;3.55;;;;;;;14.67;59.49;101332.88;4970477;28;20477;-71
2023/04/10 11:06:07;;;;;;;3.20;2.90;;;;;;;14.73;60.13;101325.22;4970742;28;20133;-71
2023/04/10 11:08:36;;;;;;;5.10;3.47;;;;;;;14.77;60.86;101324.41;4970370;28;20037;-71
2023/04/10 11:11:09;;;;;;;3.75;2.97;;;;;;;14.92;60.08;101323.91;4969698;28;20041;-71
2023/04/10 11:13:37;;;;;;;3.83;3.35;;;;;;;14.98;59.30;101324.06;4970289;28;20744;-71
2023/04/10 11:16:04;;;;;;;3.20;2.90;;;;;;;15.10;58.97;101326.03;4970132;28;20042;-71
2023/04/10 11:18:47;;;;;;;3.03;2.70;;;;;;;15.29;59.70;101310.75;4970124;28;20035;-71
2023/04/10 11:21:14;;;;;;;4.07;3.30;;;;;;;15.47;58.46;101317.22;4969995;28;20034;-71
2023/04/10 11:23:49;;;;;;;3.55;3.25;;;;;;;15.59;57.50;101304.38;4970055;28;20027;-71
2023/04/10 11:26:39;;;;;;;3.50;3.20;;;;;;;15.63;57.90;101301.81;4970740;28;20081;-72